createdAt,value
2022-09-12T00:01:10.152Z,17.42
2022-09-12T00:03:38.963Z,10.52
2022-09-12T00:06:12.306Z,10.23
2022-09-12T00:08:40.384Z,9.20
2022-09-12T00:11:11.340Z,10.15
2022-09-12T00:13:41.811Z,8.30
2022-09-12T00:16:17.860Z,7.70
2022-09-12T00:18:47.278Z,7.75
2022-09-12T00:21:15.940Z,8.25
2022-09-12T00:23:44.151Z,8.93
2022-09-12T00:26:12.445Z,12.48
2022-09-12T00:28:41.651Z,12.00
2022-09-12T00:31:12.320Z,12.00
2022-09-12T00:33:42.686Z,11.15
2022-09-12T00:36:14.181Z,12.30
2022-09-12T00:38:42.737Z,13.27
2022-09-12T00:41:16.796Z,13.07
2022-09-12T00:43:46.425Z,12.38
2022-09-12T00:46:22.496Z,12.60
2022-09-12T00:48:58.337Z,12.95
2022-09-12T00:51:26.653Z,12.40
2022-09-12T00:53:57.029Z,13.07
2022-09-12T00:56:25.501Z,13.27
2022-09-12T00:58:59.300Z,11.80
2022-09-12T01:01:32.242Z,12.70
2022-09-12T01:04:03.082Z,12.25
2022-09-12T01:06:36.438Z,13.15
2022-09-12T01:09:06.042Z,13.15
2022-09-12T01:11:37.499Z,13.95
2022-09-12T01:14:07.327Z,15.05
2022-09-12T01:16:37.854Z,14.95
2022-09-12T01:19:23.434Z,11.18
2022-09-12T01:22:03.310Z,14.20
2022-09-12T01:24:53.738Z,8.85
2022-09-12T01:27:42.974Z,10.30
2022-09-12T01:33:32.171Z,13.32
2022-09-12T01:36:25.859Z,8.52
2022-09-12T01:39:01.302Z,9.07
2022-09-12T01:41:33.520Z,9.10
2022-09-12T01:44:06.525Z,8.55
2022-09-12T01:46:43.236Z,8.35
2022-09-12T01:49:18.720Z,12.05
2022-09-12T01:51:54.336Z,12.88
2022-09-12T01:54:26.854Z,15.05
2022-09-12T01:56:58.349Z,14.80
2022-09-12T01:59:30.448Z,10.80
2022-09-12T02:02:06.154Z,10.55
2022-09-12T02:04:39.991Z,7.32
2022-09-12T02:07:12.818Z,7.72
2022-09-12T02:09:46.370Z,7.57
2022-09-12T02:12:18.645Z,9.40
2022-09-12T02:14:52.783Z,8.68
2022-09-12T02:17:23.258Z,8.35
2022-09-12T02:19:56.767Z,7.93
2022-09-12T02:22:28.086Z,7.38
2022-09-12T02:25:01.412Z,10.77
2022-09-12T02:27:34.511Z,7.63
2022-09-12T02:30:02.702Z,6.70
2022-09-12T02:32:33.505Z,6.95
2022-09-12T02:35:08.608Z,6.72
2022-09-12T02:37:49.886Z,6.05
2022-09-12T02:40:18.795Z,6.68
2022-09-12T02:42:47.266Z,6.35
2022-09-12T02:45:15.886Z,9.10
2022-09-12T02:47:48.887Z,10.23
2022-09-12T02:50:18.726Z,9.48
2022-09-12T02:52:47.484Z,10.02
2022-09-12T02:55:16.484Z,9.82
2022-09-12T02:57:44.991Z,9.75
2022-09-12T03:00:14.364Z,9.85
2022-09-12T03:02:59.029Z,9.73
2022-09-12T03:05:33.279Z,9.63
2022-09-12T03:08:32.921Z,6.78
2022-09-12T03:11:24.805Z,10.57
2022-09-12T03:14:02.882Z,9.60
2022-09-12T03:16:36.196Z,9.32
2022-09-12T03:19:11.405Z,8.55
2022-09-12T03:21:50.201Z,8.60
2022-09-12T03:24:22.366Z,9.50
2022-09-12T03:26:54.812Z,9.55
2022-09-12T03:29:26.310Z,10.45
2022-09-12T03:31:56.720Z,9.00
2022-09-12T03:34:26.755Z,9.23
2022-09-12T03:36:56.950Z,9.05
2022-09-12T03:39:26.822Z,9.70
2022-09-12T03:41:55.216Z,8.98
2022-09-12T03:44:23.384Z,9.60
2022-09-12T03:46:51.645Z,5.93
2022-09-12T03:49:19.775Z,6.30
2022-09-12T03:51:48.153Z,6.63
2022-09-12T03:54:17.866Z,8.95
2022-09-12T03:56:46.074Z,9.77
2022-09-12T03:59:14.202Z,10.00
2022-09-12T04:01:42.434Z,6.78
2022-09-12T04:04:10.873Z,6.63
2022-09-12T04:06:38.888Z,5.70
2022-09-12T04:09:06.910Z,5.97
2022-09-12T04:11:36.716Z,6.75
2022-09-12T04:14:04.726Z,6.63
2022-09-12T04:16:33.258Z,6.82
2022-09-12T04:19:02.801Z,7.35
2022-09-12T04:21:30.941Z,7.03
2022-09-12T04:23:58.929Z,6.47
2022-09-12T04:26:29.686Z,7.40
2022-09-12T04:28:59.367Z,6.15
2022-09-12T04:31:27.988Z,7.00
2022-09-12T04:33:56.812Z,6.57
2022-09-12T04:36:25.898Z,7.63
2022-09-12T04:38:54.198Z,6.65
2022-09-12T04:41:23.999Z,6.85
2022-09-12T04:43:54.497Z,7.47
2022-09-12T04:46:23.846Z,7.10
2022-09-12T04:48:56.687Z,10.35
2022-09-12T04:51:27.616Z,11.48
2022-09-12T04:53:57.886Z,11.30
2022-09-12T04:56:27.501Z,12.07
2022-09-12T04:58:57.566Z,11.70
2022-09-12T05:01:28.138Z,10.70
2022-09-12T05:03:57.493Z,11.50
2022-09-12T05:06:27.520Z,7.38
2022-09-12T05:08:57.375Z,6.80
2022-09-12T05:11:46.782Z,6.63
2022-09-12T05:14:16.853Z,8.10
2022-09-12T05:16:49.410Z,6.85
2022-09-12T05:19:18.362Z,8.25
2022-09-12T05:21:46.369Z,10.85
2022-09-12T05:24:14.643Z,7.47
2022-09-12T05:26:42.797Z,7.75
2022-09-12T05:29:11.436Z,7.38
2022-09-12T05:31:39.811Z,6.93
2022-09-12T05:34:10.077Z,10.57
2022-09-12T05:36:38.515Z,7.13
2022-09-12T05:39:06.573Z,6.38
2022-09-12T05:41:35.896Z,7.65
2022-09-12T05:44:05.893Z,7.35
2022-09-12T05:46:39.297Z,7.47
2022-09-12T05:49:11.393Z,7.47
2022-09-12T05:51:41.444Z,7.50
2022-09-12T05:54:12.226Z,7.10
2022-09-12T05:56:42.473Z,7.63
2022-09-12T05:59:13.876Z,7.63
2022-09-12T06:01:43.034Z,7.25
2022-09-12T06:04:13.039Z,7.95
2022-09-12T06:06:44.771Z,7.38
2022-09-12T06:09:13.810Z,8.90
2022-09-12T06:11:42.270Z,8.25
2022-09-12T06:14:11.518Z,8.00
2022-09-12T06:16:40.761Z,7.65
2022-09-12T06:19:16.940Z,8.02
2022-09-12T06:21:45.257Z,8.02
2022-09-12T06:24:13.302Z,8.35
2022-09-12T06:26:41.428Z,7.05
2022-09-12T06:29:11.397Z,6.35
2022-09-12T06:31:41.674Z,6.47
2022-09-12T06:34:11.175Z,7.10
2022-09-12T06:36:42.714Z,5.93
2022-09-12T06:39:13.133Z,6.97
2022-09-12T06:41:44.291Z,6.82
2022-09-12T06:44:16.190Z,5.63
2022-09-12T06:46:44.734Z,5.70
2022-09-12T06:49:13.488Z,7.80
2022-09-12T06:51:43.201Z,7.43
2022-09-12T06:54:13.944Z,7.15
2022-09-12T06:56:41.977Z,6.43
2022-09-12T06:59:10.244Z,6.10
2022-09-12T07:01:38.431Z,6.82
2022-09-12T07:04:06.710Z,7.18
2022-09-12T07:06:38.409Z,6.80
2022-09-12T07:09:10.468Z,6.32
2022-09-12T07:11:40.310Z,6.25
2022-09-12T07:14:11.166Z,5.88
2022-09-12T07:16:39.578Z,6.68
2022-09-12T07:19:09.696Z,6.00
2022-09-12T07:21:40.044Z,6.03
2022-09-12T07:24:11.253Z,6.03
2022-09-12T07:26:42.126Z,6.30
2022-09-12T07:32:05.536Z,5.70
2022-09-12T07:34:33.742Z,6.20
2022-09-12T07:37:01.713Z,6.47
2022-09-12T07:39:31.083Z,5.97
2022-09-12T07:42:00.331Z,6.80
2022-09-12T07:44:29.529Z,6.38
2022-09-12T07:46:57.534Z,6.50
2022-09-12T07:49:25.561Z,6.53
2022-09-12T07:51:53.858Z,7.25
2022-09-12T07:54:22.042Z,7.30
2022-09-12T07:56:51.654Z,7.40
2022-09-12T07:59:41.518Z,6.70
2022-09-12T08:02:16.031Z,7.05
2022-09-12T08:04:44.996Z,7.00
2022-09-12T08:07:13.002Z,6.43
2022-09-12T08:09:40.999Z,7.15
2022-09-12T08:12:10.498Z,7.57
2022-09-12T08:14:38.486Z,7.85
2022-09-12T08:17:06.653Z,7.72
2022-09-12T08:19:34.706Z,7.32
2022-09-12T08:22:03.082Z,7.07
2022-09-12T08:24:32.178Z,7.22
2022-09-12T08:27:00.272Z,7.28
2022-09-12T08:29:30.174Z,8.23
2022-09-12T08:31:58.277Z,7.18
2022-09-12T08:34:26.841Z,7.13
2022-09-12T08:36:55.027Z,7.88
2022-09-12T08:39:24.531Z,6.50
2022-09-12T08:42:01.629Z,6.53
2022-09-12T08:44:51.852Z,6.72
2022-09-12T08:47:26.661Z,6.82
2022-09-12T08:50:01.824Z,6.68
2022-09-12T08:52:37.268Z,6.30
2022-09-12T08:55:07.558Z,7.05
2022-09-12T08:57:35.640Z,7.10
2022-09-12T09:00:08.282Z,7.82
2022-09-12T09:03:10.697Z,8.07
2022-09-12T09:05:48.810Z,7.85
2022-09-12T09:08:36.602Z,7.15
2022-09-12T09:11:17.035Z,8.15
2022-09-12T09:14:13.586Z,7.57
2022-09-12T09:16:45.145Z,7.40
2022-09-12T09:19:17.681Z,7.70
2022-09-12T09:21:50.760Z,7.35
2022-09-12T09:24:25.976Z,7.22
2022-09-12T09:26:58.194Z,7.40
2022-09-12T09:29:30.937Z,7.53
2022-09-12T09:32:04.373Z,7.57
2022-09-12T09:34:33.081Z,7.88
2022-09-12T09:37:08.759Z,7.00
2022-09-12T09:39:49.153Z,7.70
2022-09-12T09:42:28.508Z,7.03
2022-09-12T09:45:01.220Z,7.10
2022-09-12T09:47:30.591Z,6.57
2022-09-12T09:50:00.348Z,7.32
2022-09-12T09:52:32.683Z,7.35
2022-09-12T09:55:03.050Z,7.07
2022-09-12T09:57:46.557Z,6.22
2022-09-12T10:00:30.617Z,6.72
2022-09-12T10:03:19.535Z,6.18
2022-09-12T10:05:50.547Z,6.97
2022-09-12T10:08:23.969Z,6.25
2022-09-12T10:11:00.406Z,7.68
2022-09-12T10:13:38.734Z,7.13
2022-09-12T10:16:18.728Z,7.15
2022-09-12T10:18:49.263Z,6.80
2022-09-12T10:21:22.415Z,6.47
2022-09-12T10:24:00.064Z,6.80
2022-09-12T10:26:33.558Z,6.57
2022-09-12T10:29:07.665Z,6.75
2022-09-12T10:31:43.240Z,6.90
2022-09-12T10:34:24.432Z,5.70
2022-09-12T10:36:56.363Z,6.72
2022-09-12T10:39:24.381Z,6.53
2022-09-12T10:41:52.501Z,6.22
2022-09-12T10:44:27.712Z,5.68
2022-09-12T10:46:55.797Z,6.43
2022-09-12T10:49:27.778Z,6.28
2022-09-12T10:51:59.406Z,6.32
2022-09-12T10:54:29.454Z,5.88
2022-09-12T10:57:25.085Z,5.93
2022-09-12T11:00:06.289Z,6.20
2022-09-12T11:02:51.593Z,5.30
2022-09-12T11:05:36.741Z,5.22
2022-09-12T11:08:20.007Z,5.00
2022-09-12T11:10:56.989Z,4.90
2022-09-12T11:13:38.434Z,3.90
2022-09-12T11:16:15.630Z,5.03
2022-09-12T11:19:20.092Z,5.55
2022-09-12T11:22:02.005Z,4.65
2022-09-12T11:24:44.818Z,4.20
2022-09-12T11:27:40.363Z,4.00
2022-09-12T11:30:12.586Z,4.95
2022-09-12T11:33:08.475Z,4.15
2022-09-12T11:35:39.006Z,4.38
2022-09-12T11:38:28.900Z,3.88
2022-09-12T11:41:01.677Z,3.30
2022-09-12T11:43:38.639Z,3.45
2022-09-12T11:46:15.568Z,2.70
2022-09-12T11:48:49.266Z,3.40
2022-09-12T11:51:20.676Z,3.50
2022-09-12T11:54:01.221Z,2.70
2022-09-12T11:56:29.255Z,3.08
2022-09-12T11:59:03.967Z,3.47
2022-09-12T12:01:42.026Z,4.05
2022-09-12T12:04:13.857Z,3.78
2022-09-12T12:06:52.073Z,3.72
2022-09-12T12:09:21.583Z,3.30
2022-09-12T12:11:56.034Z,3.55
2022-09-12T12:14:27.819Z,2.92
2022-09-12T12:16:55.962Z,3.10
2022-09-12T12:19:34.608Z,2.95
2022-09-12T12:22:09.185Z,3.03
2022-09-12T12:24:56.156Z,3.50
2022-09-12T12:27:27.068Z,3.03
2022-09-12T12:29:55.334Z,2.88
2022-09-12T12:32:27.223Z,2.50
2022-09-12T12:35:33.015Z,2.20
2022-09-12T12:38:01.397Z,2.92
2022-09-12T12:40:31.900Z,2.60
2022-09-12T12:43:20.467Z,2.20
2022-09-12T12:45:59.722Z,2.15
2022-09-12T12:48:31.426Z,2.40
2022-09-12T12:51:28.666Z,2.53
2022-09-12T12:53:57.577Z,2.50
2022-09-12T12:56:40.635Z,2.42
2022-09-12T12:59:18.748Z,2.20
2022-09-12T13:01:54.811Z,1.42
2022-09-12T13:04:26.177Z,1.80
2022-09-12T13:07:02.558Z,2.13
2022-09-12T13:09:35.291Z,1.90
2022-09-12T13:12:07.997Z,2.08
2022-09-12T13:14:54.848Z,2.22
2022-09-12T13:17:35.616Z,2.03
2022-09-12T13:20:27.777Z,2.30
2022-09-12T13:22:56.690Z,2.67
2022-09-12T13:25:30.920Z,2.13
2022-09-12T13:28:06.064Z,2.10
2022-09-12T13:30:36.858Z,2.08
2022-09-12T13:33:14.064Z,1.73
2022-09-12T13:35:55.158Z,2.28
2022-09-12T13:38:32.169Z,2.65
2022-09-12T13:41:17.654Z,2.20
2022-09-12T13:43:48.653Z,2.20
2022-09-12T13:46:23.373Z,2.40
2022-09-12T13:48:51.650Z,2.70
2022-09-12T13:51:25.583Z,2.70
2022-09-12T13:53:56.282Z,2.75
2022-09-12T13:56:24.598Z,2.17
2022-09-12T13:58:56.861Z,2.42
2022-09-12T14:01:25.908Z,2.65
2022-09-12T14:04:12.919Z,2.78
2022-09-12T14:06:49.527Z,2.80
2022-09-12T14:09:25.271Z,2.33
2022-09-12T14:11:54.270Z,2.78
2022-09-12T14:14:32.449Z,2.50
2022-09-12T14:17:01.104Z,2.42
2022-09-12T14:19:30.096Z,2.13
2022-09-12T14:21:58.987Z,2.40
2022-09-12T14:24:27.309Z,2.30
2022-09-12T14:26:57.677Z,2.22
2022-09-12T14:29:28.281Z,2.50
2022-09-12T14:32:03.612Z,2.50
2022-09-12T14:34:31.697Z,2.75
2022-09-12T14:37:00.222Z,2.28
2022-09-12T14:39:32.903Z,2.50
2022-09-12T14:42:07.269Z,2.95
2022-09-12T14:44:37.741Z,2.40
2022-09-12T14:47:15.279Z,2.83
2022-09-12T14:49:43.656Z,3.03
2022-09-12T14:52:26.096Z,3.33
2022-09-12T14:54:58.601Z,2.58
2022-09-12T14:57:36.616Z,2.72
2022-09-12T15:00:20.883Z,2.50
2022-09-12T15:02:49.926Z,2.60
2022-09-12T15:05:28.380Z,3.03
2022-09-12T15:07:59.097Z,3.53
2022-09-12T15:10:31.109Z,3.67
2022-09-12T15:13:22.043Z,3.63
2022-09-12T15:15:54.356Z,2.70
2022-09-12T15:18:24.554Z,3.25
2022-09-12T15:20:55.588Z,3.08
2022-09-12T15:23:38.059Z,3.38
2022-09-12T15:26:06.935Z,2.67
2022-09-12T15:28:35.534Z,3.08
2022-09-12T15:31:09.314Z,2.88
2022-09-12T15:33:37.687Z,3.30
2022-09-12T15:36:14.586Z,3.05
2022-09-12T15:38:42.771Z,3.10
2022-09-12T15:41:12.910Z,3.30
2022-09-12T15:43:41.164Z,3.30
2022-09-12T15:46:13.884Z,3.35
2022-09-12T15:48:42.255Z,3.03
2022-09-12T15:51:15.462Z,2.85
2022-09-12T15:53:44.745Z,3.10
2022-09-12T15:56:13.136Z,3.10
2022-09-12T15:58:57.273Z,3.42
2022-09-12T16:01:29.203Z,3.50
2022-09-12T16:03:57.695Z,3.20
2022-09-12T16:06:25.839Z,3.80
2022-09-12T16:08:53.883Z,3.30
2022-09-12T16:11:24.182Z,3.40
2022-09-12T16:13:53.735Z,3.30
2022-09-12T16:16:22.160Z,3.75
2022-09-12T16:18:51.725Z,3.72
2022-09-12T16:21:19.873Z,3.28
2022-09-12T16:23:48.509Z,3.45
2022-09-12T16:26:17.643Z,2.75
2022-09-12T16:28:46.150Z,3.55
2022-09-12T16:31:15.167Z,3.20
2022-09-12T16:33:43.269Z,3.63
2022-09-12T16:36:14.353Z,3.30
2022-09-12T16:38:43.204Z,3.33
2022-09-12T16:41:11.751Z,3.28
2022-09-12T16:43:39.912Z,3.67
2022-09-12T16:46:09.716Z,3.50
2022-09-12T16:48:38.110Z,3.47
2022-09-12T16:51:07.664Z,3.40
2022-09-12T16:53:38.966Z,3.25
2022-09-12T16:56:07.518Z,3.60
2022-09-12T16:58:41.611Z,3.53
2022-09-12T17:01:12.229Z,4.15
2022-09-12T17:03:40.320Z,4.15
2022-09-12T17:06:10.464Z,3.67
2022-09-12T17:08:41.298Z,3.55
2022-09-12T17:11:11.212Z,3.80
2022-09-12T17:14:03.272Z,3.83
2022-09-12T17:16:29.438Z,3.42
2022-09-12T17:18:57.500Z,3.95
2022-09-12T17:21:25.634Z,3.72
2022-09-12T17:23:55.354Z,3.75
2022-09-12T17:26:24.242Z,4.05
2022-09-12T17:28:52.548Z,2.97
2022-09-12T17:31:20.717Z,2.90
2022-09-12T17:33:49.168Z,3.63
2022-09-12T17:36:19.223Z,3.25
2022-09-12T17:38:47.590Z,3.50
2022-09-12T17:41:18.758Z,2.88
2022-09-12T17:43:50.674Z,4.20
2022-09-12T17:46:19.347Z,3.60
2022-09-12T17:48:52.665Z,3.40
2022-09-12T17:51:22.342Z,3.20
2022-09-12T17:53:50.381Z,3.10
2022-09-12T17:56:20.345Z,4.13
2022-09-12T17:58:49.213Z,3.40
2022-09-12T18:01:34.859Z,3.35
2022-09-12T18:04:04.009Z,3.30
2022-09-12T18:06:34.238Z,3.30
2022-09-12T18:09:03.414Z,3.38
2022-09-12T18:11:33.098Z,3.63
2022-09-12T18:14:01.376Z,3.15
2022-09-12T18:16:31.378Z,3.03
2022-09-12T18:19:01.312Z,3.10
2022-09-12T18:21:31.213Z,3.30
2022-09-12T18:24:00.402Z,3.60
2022-09-12T18:26:30.000Z,3.78
2022-09-12T18:28:59.588Z,3.50
2022-09-12T18:31:29.800Z,3.67
2022-09-12T18:33:59.721Z,4.30
2022-09-12T18:36:28.183Z,3.70
2022-09-12T18:38:57.661Z,3.83
2022-09-12T18:41:28.830Z,3.58
2022-09-12T18:43:59.924Z,3.55
2022-09-12T18:46:35.734Z,3.10
2022-09-12T18:49:04.666Z,3.83
2022-09-12T18:51:35.877Z,4.20
2022-09-12T18:54:06.172Z,3.80
2022-09-12T18:56:37.625Z,3.90
2022-09-12T18:59:08.007Z,4.05
2022-09-12T19:01:38.557Z,4.30
2022-09-12T19:04:08.922Z,4.10
2022-09-12T19:06:38.624Z,4.38
2022-09-12T19:09:08.422Z,4.03
2022-09-12T19:11:42.504Z,3.45
2022-09-12T19:14:11.910Z,4.15
2022-09-12T19:16:39.936Z,4.45
2022-09-12T19:19:07.941Z,3.65
2022-09-12T19:21:37.321Z,4.05
2022-09-12T19:24:09.973Z,3.80
2022-09-12T19:26:38.840Z,4.20
2022-09-12T19:29:14.279Z,3.45
2022-09-12T19:31:42.744Z,4.15
2022-09-12T19:34:11.977Z,3.47
2022-09-12T19:36:45.743Z,4.07
2022-09-12T19:39:15.335Z,3.22
2022-09-12T19:41:44.348Z,4.38
2022-09-12T19:44:13.841Z,3.50
2022-09-12T19:46:42.020Z,4.88
2022-09-12T19:49:12.469Z,4.22
2022-09-12T19:51:40.777Z,4.10
2022-09-12T19:54:09.143Z,4.35
2022-09-12T19:56:37.152Z,5.95
2022-09-12T19:59:05.150Z,6.00
2022-09-12T20:01:36.854Z,6.47
2022-09-12T20:04:06.653Z,5.28
2022-09-12T20:06:35.527Z,5.00
2022-09-12T20:09:03.824Z,4.72
2022-09-12T20:11:32.850Z,4.57
2022-09-12T20:14:01.563Z,3.75
2022-09-12T20:16:33.787Z,4.72
2022-09-12T20:19:05.963Z,6.13
2022-09-12T20:21:36.027Z,6.07
2022-09-12T20:24:06.095Z,6.28
2022-09-12T20:26:34.733Z,5.75
2022-09-12T20:29:04.732Z,6.38
2022-09-12T20:31:35.333Z,6.80
2022-09-12T20:34:03.668Z,6.30
2022-09-12T20:36:31.717Z,5.50
2022-09-12T20:39:01.279Z,5.15
2022-09-12T20:41:31.990Z,5.43
2022-09-12T20:44:01.231Z,5.85
2022-09-12T20:46:30.187Z,5.47
2022-09-12T20:49:03.263Z,5.68
2022-09-12T20:51:31.950Z,5.32
2022-09-12T20:54:03.126Z,5.25
2022-09-12T20:56:32.528Z,6.20
2022-09-12T20:59:00.999Z,6.00
2022-09-12T21:01:30.200Z,5.70
2022-09-12T21:04:00.058Z,5.72
2022-09-12T21:06:29.814Z,4.40
2022-09-12T21:09:00.445Z,5.15
2022-09-12T21:11:29.490Z,4.97
2022-09-12T21:13:58.259Z,5.05
2022-09-12T21:16:26.404Z,4.72
2022-09-12T21:18:56.128Z,7.70
2022-09-12T21:21:25.391Z,7.60
2022-09-12T21:24:00.105Z,4.78
2022-09-12T21:26:28.555Z,6.07
2022-09-12T21:28:57.414Z,5.95
2022-09-12T21:31:25.899Z,8.50
2022-09-12T21:33:54.020Z,8.80
2022-09-12T21:36:22.136Z,8.35
2022-09-12T21:38:50.447Z,7.40
2022-09-12T21:41:20.217Z,6.72
2022-09-12T21:43:48.784Z,7.15
2022-09-12T21:46:16.875Z,5.95
2022-09-12T21:48:45.263Z,5.82
2022-09-12T21:51:13.262Z,5.82
2022-09-12T21:53:42.222Z,5.07
2022-09-12T21:56:10.780Z,5.00
2022-09-12T21:58:40.313Z,4.28
2022-09-12T22:01:09.390Z,4.70
2022-09-12T22:03:37.667Z,4.30
2022-09-12T22:06:07.471Z,3.85
2022-09-12T22:08:37.154Z,4.47
2022-09-12T22:11:09.572Z,5.55
2022-09-12T22:13:41.965Z,4.70
2022-09-12T22:16:10.743Z,4.10
2022-09-12T22:18:39.430Z,6.07
2022-09-12T22:21:09.763Z,6.32
2022-09-12T22:23:55.277Z,6.40
2022-09-12T22:26:23.608Z,6.13
2022-09-12T22:28:53.210Z,5.95
2022-09-12T22:31:21.776Z,6.43
2022-09-12T22:33:50.752Z,6.72
2022-09-12T22:36:18.770Z,6.68
2022-09-12T22:38:46.962Z,6.43
2022-09-12T22:41:15.043Z,7.05
2022-09-12T22:43:43.038Z,6.25
2022-09-12T22:46:13.403Z,5.75
2022-09-12T22:48:41.764Z,5.47
2022-09-12T22:51:10.428Z,4.45
2022-09-12T22:53:38.486Z,4.55
2022-09-12T22:56:07.471Z,5.55
2022-09-12T22:58:37.240Z,6.15
2022-09-12T23:01:06.012Z,5.70
2022-09-12T23:03:36.226Z,5.75
2022-09-12T23:06:04.834Z,5.15
2022-09-12T23:08:34.560Z,5.15
2022-09-12T23:11:03.226Z,5.75
2022-09-12T23:13:31.245Z,5.85
2022-09-12T23:16:00.001Z,5.45
2022-09-12T23:18:28.447Z,5.85
2022-09-12T23:21:02.752Z,6.20
2022-09-12T23:23:31.165Z,5.95
2022-09-12T23:26:03.777Z,6.28
2022-09-12T23:28:32.114Z,5.95
2022-09-12T23:31:00.601Z,5.75
2022-09-12T23:33:29.252Z,5.43
2022-09-12T23:36:02.782Z,6.07
2022-09-12T23:38:31.059Z,7.20
2022-09-12T23:40:59.435Z,6.03
2022-09-12T23:43:27.698Z,7.20
2022-09-12T23:45:55.893Z,7.60
2022-09-12T23:48:24.131Z,7.20
2022-09-12T23:50:52.187Z,6.85
2022-09-12T23:53:22.654Z,6.68
2022-09-12T23:55:51.318Z,6.88
2022-09-12T23:58:19.693Z,7.90
